Terminal Aerodrome Forecast
Issued by NWS Bismarck, ND

Home | Current Version | Previous Version | Text Only | Print | Product List | Glossary On
Versions: 1 2 3 4 5 6 7 8 9 10 11 12 13 14 15 16 17 18 19 20 21 22 23 24 25
250
FTUS43 KBIS 211124
TAFBIS
TAF
KBIS 211124Z 2112/2212 30003KT 6SM -FZDZ BR OVC008
      TEMPO 2112/2116 1SM BR BKN003 OVC007
     FM211600 29004KT 2SM -FZDZ BR OVC005
     FM212000 30005KT 5SM BR OVC008
     FM220400 31007KT 3SM BR OVC004=

USA.gov is the U.S. government's official web portal to all federal, state and local government web resources and services.